Saint Regis, Montana
Current Conditions -  °F | °C
As of 7:53 AM on Thursday 30 Oct 2014 (Local Time) from KMLP Reporting Station
Moderate Fog Moderate Fog  
Wind Chill: -3°   Ceiling: 100
Heat Index:   Visibility: 0.25mi
Dew Point:   Wind: 9mph
Humidity: 100%   Direction: 140°SE
Pressure: 30.18"   Gusts: 20mph
Location:  47.3°N, 115.1°W
Report Text: KMLP 301353Z AUTO 14008G17KT 1/4SM FG BKN001 OVC080 01/01 A3018 RMK AO2 SLP184 T00110011
Loading
Personal Weather Stations






























Interactive Weather Map
Tropical Storm Tracking
New forecast layout! Learn more

10-Day Weather Forecast

Advertisements
Track Severe Weather on mobile